sensor_id;sensor_type;location;lat;lon;timestamp;P1;durP1;ratioP1;P2;durP2;ratioP2
3995;SDS011;2012;49.794;9.722;2022-08-19T00:01:39;25.10;;;19.23;;
3995;SDS011;2012;49.794;9.722;2022-08-19T00:04:10;21.40;;;17.60;;
3995;SDS011;2012;49.794;9.722;2022-08-19T00:06:40;25.43;;;19.57;;
3995;SDS011;2012;49.794;9.722;2022-08-19T00:09:10;23.73;;;19.30;;
3995;SDS011;2012;49.794;9.722;2022-08-19T00:11:38;26.37;;;20.57;;
3995;SDS011;2012;49.794;9.722;2022-08-19T00:14:06;24.67;;;18.40;;
3995;SDS011;2012;49.794;9.722;2022-08-19T00:16:36;23.10;;;19.60;;
3995;SDS011;2012;49.794;9.722;2022-08-19T00:19:04;26.30;;;19.30;;
3995;SDS011;2012;49.794;9.722;2022-08-19T00:21:31;23.67;;;18.27;;
3995;SDS011;2012;49.794;9.722;2022-08-19T00:23:58;25.37;;;18.67;;
3995;SDS011;2012;49.794;9.722;2022-08-19T00:26:27;26.70;;;21.70;;
3995;SDS011;2012;49.794;9.722;2022-08-19T00:28:54;27.90;;;20.37;;
3995;SDS011;2012;49.794;9.722;2022-08-19T00:31:21;27.10;;;19.90;;
3995;SDS011;2012;49.794;9.722;2022-08-19T00:33:48;27.47;;;18.80;;
3995;SDS011;2012;49.794;9.722;2022-08-19T00:36:16;22.77;;;17.77;;
3995;SDS011;2012;49.794;9.722;2022-08-19T00:38:43;26.87;;;19.43;;
3995;SDS011;2012;49.794;9.722;2022-08-19T00:41:12;27.07;;;19.40;;
3995;SDS011;2012;49.794;9.722;2022-08-19T00:43:40;22.77;;;18.50;;
3995;SDS011;2012;49.794;9.722;2022-08-19T00:46:07;28.43;;;20.30;;
3995;SDS011;2012;49.794;9.722;2022-08-19T00:48:35;24.93;;;18.90;;
3995;SDS011;2012;49.794;9.722;2022-08-19T00:51:03;27.20;;;19.63;;
3995;SDS011;2012;49.794;9.722;2022-08-19T00:53:31;23.43;;;18.60;;
3995;SDS011;2012;49.794;9.722;2022-08-19T00:56:00;25.23;;;17.93;;
3995;SDS011;2012;49.794;9.722;2022-08-19T00:58:29;26.80;;;19.70;;
3995;SDS011;2012;49.794;9.722;2022-08-19T01:00:58;23.63;;;18.53;;
3995;SDS011;2012;49.794;9.722;2022-08-19T01:03:26;24.40;;;19.33;;
3995;SDS011;2012;49.794;9.722;2022-08-19T01:05:53;25.60;;;18.13;;
3995;SDS011;2012;49.794;9.722;2022-08-19T01:08:21;25.40;;;18.30;;
3995;SDS011;2012;49.794;9.722;2022-08-19T01:10:53;21.63;;;18.10;;
3995;SDS011;2012;49.794;9.722;2022-08-19T01:13:23;22.60;;;18.20;;
3995;SDS011;2012;49.794;9.722;2022-08-19T01:15:56;22.90;;;18.70;;
3995;SDS011;2012;49.794;9.722;2022-08-19T01:18:27;21.87;;;18.30;;
3995;SDS011;2012;49.794;9.722;2022-08-19T01:20:56;25.23;;;18.70;;
3995;SDS011;2012;49.794;9.722;2022-08-19T01:23:27;23.50;;;17.60;;
3995;SDS011;2012;49.794;9.722;2022-08-19T01:26:13;22.13;;;17.90;;
3995;SDS011;2012;49.794;9.722;2022-08-19T01:28:42;24.83;;;19.53;;
3995;SDS011;2012;49.794;9.722;2022-08-19T01:31:29;21.30;;;17.17;;
3995;SDS011;2012;49.794;9.722;2022-08-19T01:33:59;22.23;;;17.20;;
3995;SDS011;2012;49.794;9.722;2022-08-19T01:36:29;25.60;;;18.20;;
3995;SDS011;2012;49.794;9.722;2022-08-19T01:39:01;19.90;;;17.63;;
3995;SDS011;2012;49.794;9.722;2022-08-19T01:41:31;24.63;;;17.47;;
3995;SDS011;2012;49.794;9.722;2022-08-19T01:43:58;21.57;;;17.93;;
3995;SDS011;2012;49.794;9.722;2022-08-19T01:46:43;28.10;;;20.20;;
3995;SDS011;2012;49.794;9.722;2022-08-19T01:49:11;21.43;;;17.47;;
3995;SDS011;2012;49.794;9.722;2022-08-19T01:51:37;24.80;;;19.47;;
3995;SDS011;2012;49.794;9.722;2022-08-19T01:54:05;21.97;;;17.97;;
3995;SDS011;2012;49.794;9.722;2022-08-19T01:56:33;21.30;;;17.83;;
3995;SDS011;2012;49.794;9.722;2022-08-19T01:59:01;21.20;;;18.33;;
3995;SDS011;2012;49.794;9.722;2022-08-19T02:01:30;22.90;;;16.93;;
3995;SDS011;2012;49.794;9.722;2022-08-19T02:03:58;24.87;;;18.47;;
3995;SDS011;2012;49.794;9.722;2022-08-19T02:06:27;25.13;;;18.00;;
3995;SDS011;2012;49.794;9.722;2022-08-19T02:08:54;25.90;;;19.53;;
3995;SDS011;2012;49.794;9.722;2022-08-19T02:11:23;19.17;;;17.00;;
3995;SDS011;2012;49.794;9.722;2022-08-19T02:13:53;23.07;;;18.00;;
3995;SDS011;2012;49.794;9.722;2022-08-19T02:16:21;20.57;;;17.90;;
3995;SDS011;2012;49.794;9.722;2022-08-19T02:18:48;28.03;;;18.83;;
3995;SDS011;2012;49.794;9.722;2022-08-19T02:21:16;22.60;;;18.70;;
3995;SDS011;2012;49.794;9.722;2022-08-19T02:23:44;22.53;;;18.27;;
3995;SDS011;2012;49.794;9.722;2022-08-19T02:26:11;20.40;;;16.23;;
3995;SDS011;2012;49.794;9.722;2022-08-19T02:28:39;23.30;;;18.73;;
3995;SDS011;2012;49.794;9.722;2022-08-19T02:31:10;21.97;;;17.77;;
3995;SDS011;2012;49.794;9.722;2022-08-19T02:33:41;22.07;;;17.93;;
3995;SDS011;2012;49.794;9.722;2022-08-19T02:36:09;21.10;;;17.80;;
3995;SDS011;2012;49.794;9.722;2022-08-19T02:38:37;21.33;;;17.60;;
3995;SDS011;2012;49.794;9.722;2022-08-19T02:41:04;23.77;;;19.07;;
3995;SDS011;2012;49.794;9.722;2022-08-19T02:43:36;20.63;;;17.00;;
3995;SDS011;2012;49.794;9.722;2022-08-19T02:46:13;21.87;;;18.07;;
3995;SDS011;2012;49.794;9.722;2022-08-19T02:48:54;24.30;;;18.93;;
3995;SDS011;2012;49.794;9.722;2022-08-19T02:51:33;21.40;;;17.83;;
3995;SDS011;2012;49.794;9.722;2022-08-19T02:54:09;23.73;;;18.43;;
3995;SDS011;2012;49.794;9.722;2022-08-19T02:56:39;31.73;;;19.00;;
3995;SDS011;2012;49.794;9.722;2022-08-19T02:59:07;22.20;;;17.17;;
3995;SDS011;2012;49.794;9.722;2022-08-19T03:01:37;23.37;;;17.73;;
3995;SDS011;2012;49.794;9.722;2022-08-19T03:04:07;26.10;;;18.87;;
3995;SDS011;2012;49.794;9.722;2022-08-19T03:06:36;21.00;;;17.73;;
3995;SDS011;2012;49.794;9.722;2022-08-19T03:09:04;23.40;;;19.67;;
3995;SDS011;2012;49.794;9.722;2022-08-19T03:11:31;22.50;;;18.27;;
3995;SDS011;2012;49.794;9.722;2022-08-19T03:13:59;23.70;;;18.27;;
3995;SDS011;2012;49.794;9.722;2022-08-19T03:16:28;21.40;;;16.90;;
3995;SDS011;2012;49.794;9.722;2022-08-19T03:18:59;24.63;;;20.10;;
3995;SDS011;2012;49.794;9.722;2022-08-19T03:21:28;23.50;;;17.97;;
3995;SDS011;2012;49.794;9.722;2022-08-19T03:23:57;23.03;;;17.50;;
3995;SDS011;2012;49.794;9.722;2022-08-19T03:26:26;23.30;;;18.63;;
3995;SDS011;2012;49.794;9.722;2022-08-19T03:28:53;22.43;;;18.63;;
3995;SDS011;2012;49.794;9.722;2022-08-19T03:31:24;22.57;;;18.23;;
3995;SDS011;2012;49.794;9.722;2022-08-19T03:34:14;20.70;;;17.67;;
3995;SDS011;2012;49.794;9.722;2022-08-19T03:36:44;29.70;;;18.90;;
3995;SDS011;2012;49.794;9.722;2022-08-19T03:39:12;24.57;;;19.17;;
3995;SDS011;2012;49.794;9.722;2022-08-19T03:41:40;26.90;;;17.17;;
3995;SDS011;2012;49.794;9.722;2022-08-19T03:44:14;26.70;;;20.30;;
3995;SDS011;2012;49.794;9.722;2022-08-19T03:46:45;22.07;;;19.13;;
3995;SDS011;2012;49.794;9.722;2022-08-19T03:49:13;26.50;;;20.30;;
3995;SDS011;2012;49.794;9.722;2022-08-19T03:51:43;28.23;;;19.00;;
3995;SDS011;2012;49.794;9.722;2022-08-19T03:54:12;22.80;;;19.20;;
3995;SDS011;2012;49.794;9.722;2022-08-19T03:56:41;25.27;;;18.87;;
3995;SDS011;2012;49.794;9.722;2022-08-19T03:59:11;24.00;;;19.07;;
3995;SDS011;2012;49.794;9.722;2022-08-19T04:01:42;21.90;;;18.43;;
3995;SDS011;2012;49.794;9.722;2022-08-19T04:04:09;22.10;;;18.67;;
3995;SDS011;2012;49.794;9.722;2022-08-19T04:06:36;22.40;;;19.07;;
3995;SDS011;2012;49.794;9.722;2022-08-19T04:09:06;21.97;;;17.57;;
3995;SDS011;2012;49.794;9.722;2022-08-19T04:11:51;26.00;;;18.53;;
3995;SDS011;2012;49.794;9.722;2022-08-19T04:14:23;23.43;;;18.77;;
3995;SDS011;2012;49.794;9.722;2022-08-19T04:16:56;23.90;;;18.77;;
3995;SDS011;2012;49.794;9.722;2022-08-19T04:19:25;27.23;;;18.33;;
3995;SDS011;2012;49.794;9.722;2022-08-19T04:21:53;23.70;;;18.37;;
3995;SDS011;2012;49.794;9.722;2022-08-19T04:24:21;21.53;;;18.40;;
3995;SDS011;2012;49.794;9.722;2022-08-19T04:26:49;19.53;;;17.43;;
3995;SDS011;2012;49.794;9.722;2022-08-19T04:29:18;22.07;;;19.60;;
3995;SDS011;2012;49.794;9.722;2022-08-19T04:31:48;22.70;;;17.70;;
3995;SDS011;2012;49.794;9.722;2022-08-19T04:34:16;24.40;;;17.50;;
3995;SDS011;2012;49.794;9.722;2022-08-19T04:36:44;22.53;;;18.07;;
3995;SDS011;2012;49.794;9.722;2022-08-19T04:39:15;22.40;;;18.10;;
3995;SDS011;2012;49.794;9.722;2022-08-19T04:41:43;22.30;;;17.93;;
3995;SDS011;2012;49.794;9.722;2022-08-19T04:44:32;21.40;;;18.00;;
3995;SDS011;2012;49.794;9.722;2022-08-19T04:47:01;23.30;;;17.70;;
3995;SDS011;2012;49.794;9.722;2022-08-19T04:49:36;23.13;;;18.40;;
3995;SDS011;2012;49.794;9.722;2022-08-19T04:52:03;25.63;;;19.07;;
3995;SDS011;2012;49.794;9.722;2022-08-19T04:54:30;22.20;;;18.40;;
3995;SDS011;2012;49.794;9.722;2022-08-19T04:57:04;24.20;;;18.07;;
3995;SDS011;2012;49.794;9.722;2022-08-19T04:59:37;24.30;;;18.57;;
3995;SDS011;2012;49.794;9.722;2022-08-19T05:02:04;22.70;;;18.00;;
3995;SDS011;2012;49.794;9.722;2022-08-19T05:04:34;25.70;;;18.20;;
3995;SDS011;2012;49.794;9.722;2022-08-19T05:07:05;21.30;;;17.07;;
3995;SDS011;2012;49.794;9.722;2022-08-19T05:09:34;22.63;;;17.33;;
3995;SDS011;2012;49.794;9.722;2022-08-19T05:12:20;19.87;;;16.07;;
3995;SDS011;2012;49.794;9.722;2022-08-19T05:14:53;20.77;;;16.47;;
3995;SDS011;2012;49.794;9.722;2022-08-19T05:17:22;22.73;;;17.30;;
3995;SDS011;2012;49.794;9.722;2022-08-19T05:19:53;23.80;;;18.83;;
3995;SDS011;2012;49.794;9.722;2022-08-19T05:22:40;29.63;;;17.70;;
3995;SDS011;2012;49.794;9.722;2022-08-19T05:25:09;30.87;;;16.90;;
3995;SDS011;2012;49.794;9.722;2022-08-19T05:27:39;21.00;;;17.60;;
3995;SDS011;2012;49.794;9.722;2022-08-19T05:30:07;23.70;;;17.40;;
3995;SDS011;2012;49.794;9.722;2022-08-19T05:32:34;20.47;;;17.23;;
3995;SDS011;2012;49.794;9.722;2022-08-19T05:35:02;19.37;;;17.10;;
3995;SDS011;2012;49.794;9.722;2022-08-19T05:37:29;21.23;;;17.27;;
3995;SDS011;2012;49.794;9.722;2022-08-19T05:39:56;25.60;;;17.60;;
3995;SDS011;2012;49.794;9.722;2022-08-19T05:42:23;24.53;;;18.90;;
3995;SDS011;2012;49.794;9.722;2022-08-19T05:44:50;25.07;;;18.37;;
3995;SDS011;2012;49.794;9.722;2022-08-19T05:47:17;23.63;;;17.57;;
3995;SDS011;2012;49.794;9.722;2022-08-19T05:49:46;19.83;;;17.03;;
3995;SDS011;2012;49.794;9.722;2022-08-19T05:52:14;21.30;;;17.13;;
3995;SDS011;2012;49.794;9.722;2022-08-19T05:54:44;23.07;;;17.60;;
3995;SDS011;2012;49.794;9.722;2022-08-19T05:57:16;25.23;;;17.20;;
3995;SDS011;2012;49.794;9.722;2022-08-19T05:59:44;27.43;;;17.20;;
3995;SDS011;2012;49.794;9.722;2022-08-19T06:02:14;24.63;;;15.37;;
3995;SDS011;2012;49.794;9.722;2022-08-19T06:04:41;22.27;;;15.97;;
3995;SDS011;2012;49.794;9.722;2022-08-19T06:07:09;23.17;;;16.90;;
3995;SDS011;2012;49.794;9.722;2022-08-19T06:09:38;19.37;;;16.37;;
3995;SDS011;2012;49.794;9.722;2022-08-19T06:12:04;23.03;;;16.57;;
3995;SDS011;2012;49.794;9.722;2022-08-19T06:14:33;18.33;;;14.80;;
3995;SDS011;2012;49.794;9.722;2022-08-19T06:17:05;15.77;;;13.97;;
3995;SDS011;2012;49.794;9.722;2022-08-19T06:19:32;18.70;;;14.70;;
3995;SDS011;2012;49.794;9.722;2022-08-19T06:22:05;18.10;;;12.27;;
3995;SDS011;2012;49.794;9.722;2022-08-19T06:24:33;21.00;;;16.07;;
3995;SDS011;2012;49.794;9.722;2022-08-19T06:27:01;19.97;;;14.60;;
3995;SDS011;2012;49.794;9.722;2022-08-19T06:29:31;21.10;;;13.80;;
3995;SDS011;2012;49.794;9.722;2022-08-19T06:31:59;20.23;;;14.70;;
3995;SDS011;2012;49.794;9.722;2022-08-19T06:34:29;16.80;;;13.80;;
3995;SDS011;2012;49.794;9.722;2022-08-19T06:36:59;15.43;;;12.67;;
3995;SDS011;2012;49.794;9.722;2022-08-19T06:39:30;21.00;;;13.90;;
3995;SDS011;2012;49.794;9.722;2022-08-19T06:42:01;17.13;;;14.30;;
3995;SDS011;2012;49.794;9.722;2022-08-19T06:44:35;22.90;;;14.47;;
3995;SDS011;2012;49.794;9.722;2022-08-19T06:47:09;18.40;;;12.57;;
3995;SDS011;2012;49.794;9.722;2022-08-19T06:49:40;17.23;;;15.00;;
3995;SDS011;2012;49.794;9.722;2022-08-19T06:52:07;19.50;;;13.90;;
3995;SDS011;2012;49.794;9.722;2022-08-19T06:54:39;20.90;;;12.53;;
3995;SDS011;2012;49.794;9.722;2022-08-19T06:57:21;14.97;;;13.37;;
3995;SDS011;2012;49.794;9.722;2022-08-19T06:59:48;18.07;;;14.47;;
3995;SDS011;2012;49.794;9.722;2022-08-19T07:02:14;17.97;;;14.27;;
3995;SDS011;2012;49.794;9.722;2022-08-19T07:04:44;17.30;;;13.50;;
3995;SDS011;2012;49.794;9.722;2022-08-19T07:07:13;16.67;;;12.33;;
3995;SDS011;2012;49.794;9.722;2022-08-19T07:09:46;21.10;;;13.57;;
3995;SDS011;2012;49.794;9.722;2022-08-19T07:12:25;20.87;;;13.43;;
3995;SDS011;2012;49.794;9.722;2022-08-19T07:15:00;18.23;;;13.83;;
3995;SDS011;2012;49.794;9.722;2022-08-19T07:17:28;19.33;;;14.73;;
3995;SDS011;2012;49.794;9.722;2022-08-19T07:19:56;19.63;;;13.67;;
3995;SDS011;2012;49.794;9.722;2022-08-19T07:22:30;18.30;;;14.47;;
3995;SDS011;2012;49.794;9.722;2022-08-19T07:24:58;23.73;;;13.37;;
3995;SDS011;2012;49.794;9.722;2022-08-19T07:27:25;24.80;;;15.80;;
3995;SDS011;2012;49.794;9.722;2022-08-19T07:29:52;15.10;;;13.03;;
3995;SDS011;2012;49.794;9.722;2022-08-19T07:32:22;16.10;;;13.67;;
3995;SDS011;2012;49.794;9.722;2022-08-19T07:34:50;18.07;;;13.60;;
3995;SDS011;2012;49.794;9.722;2022-08-19T07:37:17;19.20;;;13.20;;
3995;SDS011;2012;49.794;9.722;2022-08-19T07:39:44;16.27;;;13.70;;
3995;SDS011;2012;49.794;9.722;2022-08-19T07:42:10;19.07;;;13.80;;
3995;SDS011;2012;49.794;9.722;2022-08-19T07:44:39;29.53;;;14.17;;
3995;SDS011;2012;49.794;9.722;2022-08-19T07:47:07;19.70;;;15.10;;
3995;SDS011;2012;49.794;9.722;2022-08-19T07:49:53;24.03;;;15.03;;
3995;SDS011;2012;49.794;9.722;2022-08-19T07:52:20;16.97;;;11.60;;
3995;SDS011;2012;49.794;9.722;2022-08-19T07:54:48;12.30;;;11.00;;
3995;SDS011;2012;49.794;9.722;2022-08-19T07:57:16;19.93;;;11.53;;
3995;SDS011;2012;49.794;9.722;2022-08-19T07:59:43;18.30;;;13.37;;
3995;SDS011;2012;49.794;9.722;2022-08-19T08:02:09;18.50;;;13.57;;
3995;SDS011;2012;49.794;9.722;2022-08-19T08:04:36;19.93;;;12.80;;
3995;SDS011;2012;49.794;9.722;2022-08-19T08:07:22;20.63;;;13.03;;
3995;SDS011;2012;49.794;9.722;2022-08-19T08:10:11;19.37;;;12.40;;
3995;SDS011;2012;49.794;9.722;2022-08-19T08:12:46;20.70;;;13.20;;
3995;SDS011;2012;49.794;9.722;2022-08-19T08:15:33;14.80;;;10.50;;
3995;SDS011;2012;49.794;9.722;2022-08-19T08:18:07;14.97;;;11.70;;
3995;SDS011;2012;49.794;9.722;2022-08-19T08:20:34;21.50;;;13.27;;
3995;SDS011;2012;49.794;9.722;2022-08-19T08:23:01;16.53;;;13.40;;
3995;SDS011;2012;49.794;9.722;2022-08-19T08:25:46;20.37;;;11.10;;
3995;SDS011;2012;49.794;9.722;2022-08-19T08:28:15;15.80;;;12.73;;
3995;SDS011;2012;49.794;9.722;2022-08-19T08:30:43;15.07;;;11.07;;
3995;SDS011;2012;49.794;9.722;2022-08-19T08:33:12;19.50;;;10.70;;
3995;SDS011;2012;49.794;9.722;2022-08-19T08:35:44;14.37;;;10.40;;
3995;SDS011;2012;49.794;9.722;2022-08-19T08:38:12;17.53;;;12.37;;
3995;SDS011;2012;49.794;9.722;2022-08-19T08:43:33;22.50;;;10.60;;
3995;SDS011;2012;49.794;9.722;2022-08-19T08:46:04;15.80;;;10.60;;
3995;SDS011;2012;49.794;9.722;2022-08-19T08:48:52;13.03;;;11.07;;
3995;SDS011;2012;49.794;9.722;2022-08-19T08:51:44;15.17;;;10.60;;
3995;SDS011;2012;49.794;9.722;2022-08-19T08:54:26;13.60;;;10.07;;
3995;SDS011;2012;49.794;9.722;2022-08-19T08:57:00;13.67;;;9.17;;
3995;SDS011;2012;49.794;9.722;2022-08-19T08:59:33;12.77;;;9.27;;
3995;SDS011;2012;49.794;9.722;2022-08-19T09:02:03;16.50;;;8.67;;
3995;SDS011;2012;49.794;9.722;2022-08-19T09:04:30;13.13;;;8.67;;
3995;SDS011;2012;49.794;9.722;2022-08-19T09:10:16;11.00;;;8.37;;
3995;SDS011;2012;49.794;9.722;2022-08-19T09:15:37;14.03;;;8.27;;
3995;SDS011;2012;49.794;9.722;2022-08-19T09:18:08;10.30;;;6.50;;
3995;SDS011;2012;49.794;9.722;2022-08-19T09:20:44;11.93;;;5.83;;
3995;SDS011;2012;49.794;9.722;2022-08-19T09:23:13;7.17;;;5.93;;
3995;SDS011;2012;49.794;9.722;2022-08-19T09:25:40;9.80;;;5.20;;
3995;SDS011;2012;49.794;9.722;2022-08-19T09:28:07;7.53;;;5.30;;
3995;SDS011;2012;49.794;9.722;2022-08-19T09:30:52;6.00;;;5.20;;
3995;SDS011;2012;49.794;9.722;2022-08-19T09:33:19;8.90;;;4.97;;
3995;SDS011;2012;49.794;9.722;2022-08-19T09:35:46;7.13;;;4.57;;
3995;SDS011;2012;49.794;9.722;2022-08-19T09:38:18;7.67;;;4.60;;
3995;SDS011;2012;49.794;9.722;2022-08-19T09:40:46;9.10;;;4.40;;
3995;SDS011;2012;49.794;9.722;2022-08-19T09:43:13;9.70;;;4.20;;
3995;SDS011;2012;49.794;9.722;2022-08-19T09:45:40;7.20;;;3.80;;
3995;SDS011;2012;49.794;9.722;2022-08-19T09:48:06;5.63;;;4.40;;
3995;SDS011;2012;49.794;9.722;2022-08-19T09:50:36;7.00;;;4.40;;
3995;SDS011;2012;49.794;9.722;2022-08-19T09:53:17;7.00;;;3.83;;
3995;SDS011;2012;49.794;9.722;2022-08-19T09:55:44;6.43;;;4.03;;
3995;SDS011;2012;49.794;9.722;2022-08-19T09:58:11;4.53;;;3.50;;
3995;SDS011;2012;49.794;9.722;2022-08-19T10:00:38;6.23;;;3.57;;
3995;SDS011;2012;49.794;9.722;2022-08-19T10:03:05;5.63;;;3.80;;
3995;SDS011;2012;49.794;9.722;2022-08-19T10:05:33;7.80;;;4.93;;
3995;SDS011;2012;49.794;9.722;2022-08-19T10:08:22;6.90;;;4.00;;
3995;SDS011;2012;49.794;9.722;2022-08-19T10:10:57;9.20;;;4.10;;
3995;SDS011;2012;49.794;9.722;2022-08-19T10:13:44;5.73;;;4.50;;
3995;SDS011;2012;49.794;9.722;2022-08-19T10:16:13;4.10;;;3.70;;
3995;SDS011;2012;49.794;9.722;2022-08-19T10:18:42;4.83;;;4.27;;
3995;SDS011;2012;49.794;9.722;2022-08-19T10:21:16;6.03;;;3.80;;
3995;SDS011;2012;49.794;9.722;2022-08-19T10:23:52;6.80;;;4.30;;
3995;SDS011;2012;49.794;9.722;2022-08-19T10:26:24;12.47;;;4.00;;
3995;SDS011;2012;49.794;9.722;2022-08-19T10:28:56;8.80;;;4.90;;
3995;SDS011;2012;49.794;9.722;2022-08-19T10:31:25;4.80;;;3.83;;
3995;SDS011;2012;49.794;9.722;2022-08-19T10:34:14;5.40;;;4.10;;
3995;SDS011;2012;49.794;9.722;2022-08-19T10:36:53;3.50;;;3.20;;
3995;SDS011;2012;49.794;9.722;2022-08-19T10:39:26;4.70;;;3.40;;
3995;SDS011;2012;49.794;9.722;2022-08-19T10:42:06;9.90;;;3.63;;
3995;SDS011;2012;49.794;9.722;2022-08-19T10:44:33;8.00;;;3.50;;
3995;SDS011;2012;49.794;9.722;2022-08-19T10:47:01;8.63;;;3.63;;
3995;SDS011;2012;49.794;9.722;2022-08-19T10:49:42;5.43;;;3.90;;
3995;SDS011;2012;49.794;9.722;2022-08-19T10:52:28;4.83;;;3.60;;
3995;SDS011;2012;49.794;9.722;2022-08-19T10:55:04;4.90;;;3.50;;
3995;SDS011;2012;49.794;9.722;2022-08-19T10:57:54;6.40;;;4.00;;
3995;SDS011;2012;49.794;9.722;2022-08-19T11:00:28;5.70;;;3.87;;
3995;SDS011;2012;49.794;9.722;2022-08-19T11:02:56;3.87;;;3.50;;
3995;SDS011;2012;49.794;9.722;2022-08-19T11:05:23;3.27;;;2.97;;
3995;SDS011;2012;49.794;9.722;2022-08-19T11:07:50;8.13;;;4.10;;
3995;SDS011;2012;49.794;9.722;2022-08-19T11:10:18;6.43;;;3.17;;
3995;SDS011;2012;49.794;9.722;2022-08-19T11:12:47;4.90;;;3.47;;
3995;SDS011;2012;49.794;9.722;2022-08-19T11:15:14;4.77;;;3.40;;
3995;SDS011;2012;49.794;9.722;2022-08-19T11:17:41;4.57;;;3.53;;
3995;SDS011;2012;49.794;9.722;2022-08-19T11:20:12;3.57;;;3.23;;
3995;SDS011;2012;49.794;9.722;2022-08-19T11:22:40;6.13;;;3.30;;
3995;SDS011;2012;49.794;9.722;2022-08-19T11:25:08;6.40;;;3.80;;
3995;SDS011;2012;49.794;9.722;2022-08-19T11:27:37;4.60;;;3.73;;
3995;SDS011;2012;49.794;9.722;2022-08-19T11:30:09;6.50;;;3.10;;
3995;SDS011;2012;49.794;9.722;2022-08-19T11:32:38;6.30;;;3.20;;
3995;SDS011;2012;49.794;9.722;2022-08-19T11:35:14;8.50;;;3.20;;
3995;SDS011;2012;49.794;9.722;2022-08-19T11:37:42;4.73;;;2.73;;
3995;SDS011;2012;49.794;9.722;2022-08-19T11:40:09;3.43;;;2.50;;
3995;SDS011;2012;49.794;9.722;2022-08-19T11:42:36;3.07;;;2.60;;
3995;SDS011;2012;49.794;9.722;2022-08-19T11:45:25;7.77;;;2.73;;
3995;SDS011;2012;49.794;9.722;2022-08-19T11:47:54;12.13;;;2.80;;
3995;SDS011;2012;49.794;9.722;2022-08-19T11:50:21;3.00;;;2.40;;
3995;SDS011;2012;49.794;9.722;2022-08-19T11:52:49;3.17;;;2.30;;
3995;SDS011;2012;49.794;9.722;2022-08-19T11:55:20;2.63;;;2.30;;
3995;SDS011;2012;49.794;9.722;2022-08-19T11:57:46;4.30;;;2.10;;
3995;SDS011;2012;49.794;9.722;2022-08-19T12:00:14;3.10;;;2.57;;
3995;SDS011;2012;49.794;9.722;2022-08-19T12:02:41;6.60;;;2.33;;
3995;SDS011;2012;49.794;9.722;2022-08-19T12:05:08;3.57;;;2.00;;
3995;SDS011;2012;49.794;9.722;2022-08-19T12:07:38;3.53;;;3.23;;
3995;SDS011;2012;49.794;9.722;2022-08-19T12:10:09;3.43;;;1.90;;
3995;SDS011;2012;49.794;9.722;2022-08-19T12:12:37;3.27;;;1.70;;
3995;SDS011;2012;49.794;9.722;2022-08-19T12:15:09;1.80;;;1.70;;
3995;SDS011;2012;49.794;9.722;2022-08-19T12:17:37;2.10;;;1.90;;
3995;SDS011;2012;49.794;9.722;2022-08-19T12:20:04;2.70;;;1.83;;
3995;SDS011;2012;49.794;9.722;2022-08-19T12:22:32;3.60;;;2.20;;
3995;SDS011;2012;49.794;9.722;2022-08-19T12:24:59;6.97;;;2.10;;
3995;SDS011;2012;49.794;9.722;2022-08-19T12:27:26;3.83;;;1.93;;
3995;SDS011;2012;49.794;9.722;2022-08-19T12:30:06;5.80;;;1.90;;
3995;SDS011;2012;49.794;9.722;2022-08-19T12:32:35;3.83;;;1.70;;
3995;SDS011;2012;49.794;9.722;2022-08-19T12:35:02;2.80;;;2.07;;
3995;SDS011;2012;49.794;9.722;2022-08-19T12:37:30;2.40;;;2.20;;
3995;SDS011;2012;49.794;9.722;2022-08-19T12:39:58;4.20;;;1.70;;
3995;SDS011;2012;49.794;9.722;2022-08-19T12:42:25;7.37;;;1.80;;
3995;SDS011;2012;49.794;9.722;2022-08-19T12:44:52;2.70;;;1.90;;
3995;SDS011;2012;49.794;9.722;2022-08-19T12:47:19;5.70;;;1.97;;
3995;SDS011;2012;49.794;9.722;2022-08-19T12:49:46;2.17;;;2.07;;
3995;SDS011;2012;49.794;9.722;2022-08-19T12:52:20;2.20;;;2.00;;
3995;SDS011;2012;49.794;9.722;2022-08-19T12:54:49;4.43;;;2.07;;
3995;SDS011;2012;49.794;9.722;2022-08-19T12:57:20;8.43;;;2.57;;
3995;SDS011;2012;49.794;9.722;2022-08-19T12:59:58;11.80;;;2.20;;
3995;SDS011;2012;49.794;9.722;2022-08-19T13:02:26;2.70;;;1.63;;
3995;SDS011;2012;49.794;9.722;2022-08-19T13:04:52;4.40;;;1.80;;
3995;SDS011;2012;49.794;9.722;2022-08-19T13:07:19;4.20;;;1.87;;
3995;SDS011;2012;49.794;9.722;2022-08-19T13:09:46;8.90;;;2.10;;
3995;SDS011;2012;49.794;9.722;2022-08-19T13:12:13;2.33;;;1.80;;
3995;SDS011;2012;49.794;9.722;2022-08-19T13:14:41;9.60;;;2.10;;
3995;SDS011;2012;49.794;9.722;2022-08-19T13:17:08;6.43;;;2.00;;
3995;SDS011;2012;49.794;9.722;2022-08-19T13:19:36;8.93;;;2.23;;
3995;SDS011;2012;49.794;9.722;2022-08-19T13:22:02;1.83;;;1.73;;
3995;SDS011;2012;49.794;9.722;2022-08-19T13:24:38;1.57;;;1.47;;
3995;SDS011;2012;49.794;9.722;2022-08-19T13:27:10;2.30;;;1.67;;
3995;SDS011;2012;49.794;9.722;2022-08-19T13:29:39;7.37;;;1.80;;
3995;SDS011;2012;49.794;9.722;2022-08-19T13:32:28;5.17;;;1.83;;
3995;SDS011;2012;49.794;9.722;2022-08-19T13:35:15;11.37;;;1.60;;
3995;SDS011;2012;49.794;9.722;2022-08-19T13:37:42;8.73;;;1.97;;
3995;SDS011;2012;49.794;9.722;2022-08-19T13:40:12;5.13;;;1.53;;
3995;SDS011;2012;49.794;9.722;2022-08-19T13:42:46;10.07;;;1.77;;
3995;SDS011;2012;49.794;9.722;2022-08-19T13:45:18;1.73;;;1.50;;
3995;SDS011;2012;49.794;9.722;2022-08-19T13:47:50;1.80;;;1.60;;
3995;SDS011;2012;49.794;9.722;2022-08-19T13:50:26;2.30;;;1.63;;
3995;SDS011;2012;49.794;9.722;2022-08-19T13:52:55;5.90;;;1.67;;
3995;SDS011;2012;49.794;9.722;2022-08-19T13:55:22;3.47;;;2.03;;
3995;SDS011;2012;49.794;9.722;2022-08-19T13:57:54;4.93;;;1.80;;
3995;SDS011;2012;49.794;9.722;2022-08-19T14:00:24;1.80;;;1.70;;
3995;SDS011;2012;49.794;9.722;2022-08-19T14:02:54;2.27;;;2.07;;
3995;SDS011;2012;49.794;9.722;2022-08-19T14:05:22;5.63;;;1.50;;
3995;SDS011;2012;49.794;9.722;2022-08-19T14:07:49;1.90;;;1.70;;
3995;SDS011;2012;49.794;9.722;2022-08-19T14:10:16;1.77;;;1.67;;
3995;SDS011;2012;49.794;9.722;2022-08-19T14:12:44;4.10;;;1.70;;
3995;SDS011;2012;49.794;9.722;2022-08-19T14:15:13;2.33;;;1.50;;
3995;SDS011;2012;49.794;9.722;2022-08-19T14:17:41;8.00;;;1.70;;
3995;SDS011;2012;49.794;9.722;2022-08-19T14:20:10;2.40;;;1.90;;
3995;SDS011;2012;49.794;9.722;2022-08-19T14:22:44;2.20;;;1.83;;
3995;SDS011;2012;49.794;9.722;2022-08-19T14:25:18;2.83;;;1.87;;
3995;SDS011;2012;49.794;9.722;2022-08-19T14:27:47;4.20;;;1.70;;
3995;SDS011;2012;49.794;9.722;2022-08-19T14:30:16;2.33;;;1.87;;
3995;SDS011;2012;49.794;9.722;2022-08-19T14:32:44;1.87;;;1.77;;
3995;SDS011;2012;49.794;9.722;2022-08-19T14:35:12;2.00;;;1.77;;
3995;SDS011;2012;49.794;9.722;2022-08-19T14:37:41;4.60;;;1.77;;
3995;SDS011;2012;49.794;9.722;2022-08-19T14:40:12;7.90;;;1.67;;
3995;SDS011;2012;49.794;9.722;2022-08-19T14:42:41;3.47;;;1.83;;
3995;SDS011;2012;49.794;9.722;2022-08-19T14:45:08;2.60;;;1.90;;
3995;SDS011;2012;49.794;9.722;2022-08-19T14:47:36;2.90;;;1.83;;
3995;SDS011;2012;49.794;9.722;2022-08-19T14:50:12;2.20;;;2.00;;
3995;SDS011;2012;49.794;9.722;2022-08-19T14:52:44;1.73;;;1.63;;
3995;SDS011;2012;49.794;9.722;2022-08-19T14:55:17;1.93;;;1.70;;
3995;SDS011;2012;49.794;9.722;2022-08-19T14:57:44;6.00;;;1.83;;
3995;SDS011;2012;49.794;9.722;2022-08-19T15:00:12;2.13;;;1.93;;
3995;SDS011;2012;49.794;9.722;2022-08-19T15:02:40;2.90;;;1.90;;
3995;SDS011;2012;49.794;9.722;2022-08-19T15:05:07;3.50;;;1.97;;
3995;SDS011;2012;49.794;9.722;2022-08-19T15:07:34;3.97;;;1.80;;
3995;SDS011;2012;49.794;9.722;2022-08-19T15:10:01;3.40;;;2.30;;
3995;SDS011;2012;49.794;9.722;2022-08-19T15:12:29;2.23;;;1.80;;
3995;SDS011;2012;49.794;9.722;2022-08-19T15:14:56;4.63;;;1.80;;
3995;SDS011;2012;49.794;9.722;2022-08-19T15:17:23;8.47;;;1.83;;
3995;SDS011;2012;49.794;9.722;2022-08-19T15:20:11;2.17;;;1.77;;
3995;SDS011;2012;49.794;9.722;2022-08-19T15:22:40;1.70;;;1.60;;
3995;SDS011;2012;49.794;9.722;2022-08-19T15:25:09;12.73;;;2.30;;
3995;SDS011;2012;49.794;9.722;2022-08-19T15:27:37;5.93;;;1.90;;